Time;durP1;ratioP1;P1;durP2;ratioP2;P2;SDS_P1;SDS_P2;PMS_P1;PMS_P2;Temp;Humidity;BMP_temperature;BMP_pressure;BME280_temperature;BME280_humidity;BME280_pressure;Samples;Min_cycle;Max_cycle;Signal;HPM_P1;HPM_P2
2023/10/28 00:02:10;;;;;;;2.70;1.80;;;;;;;;;;5052733;28;20233;-90
2023/10/28 00:04:42;;;;;;;4.03;2.17;;;;;;;;;;5053553;28;20866;-90
2023/10/28 00:07:10;;;;;;;3.63;2.17;;;;;;;;;;5052012;28;20727;-90
2023/10/28 00:09:45;;;;;;;2.83;1.60;;;;;;;;;;5053898;28;20212;-89
2023/10/28 00:12:17;;;;;;;2.37;1.70;;;;;;;;;;5051994;28;20253;-90
2023/10/28 00:14:49;;;;;;;2.97;2.10;;;;;;;;;;5053380;28;20210;-90
2023/10/28 00:17:17;;;;;;;1.77;1.67;;;;;;;;;;5052051;28;20238;-90
2023/10/28 00:19:46;;;;;;;5.13;2.07;;;;;;;;;;5053345;28;20206;-89
2023/10/28 00:22:17;;;;;;;3.17;2.20;;;;;;;;;;5050771;28;20659;-90
2023/10/28 00:24:45;;;;;;;2.10;2.00;;;;;;;;;;5052926;28;20206;-92
2023/10/28 00:27:16;;;;;;;2.63;2.37;;;;;;;;;;5052393;28;20292;-91
2023/10/28 00:29:52;;;;;;;2.93;2.00;;;;;;;;;;5053778;28;20263;-90
2023/10/28 00:32:22;;;;;;;2.10;2.00;;;;;;;;;;5050496;28;20298;-89
2023/10/28 00:34:54;;;;;;;1.70;1.60;;;;;;;;;;5053610;28;20217;-91
2023/10/28 00:37:22;;;;;;;2.27;2.13;;;;;;;;;;5050871;28;20229;-89
2023/10/28 00:39:50;;;;;;;2.30;2.10;;;;;;;;;;5052419;28;20202;-90
2023/10/28 00:42:20;;;;;;;2.63;2.03;;;;;;;;;;5051523;28;20268;-90
2023/10/28 00:44:50;;;;;;;2.20;2.10;;;;;;;;;;5052431;28;20186;-91
2023/10/28 00:47:18;;;;;;;2.20;2.00;;;;;;;;;;5050441;28;20303;-90
2023/10/28 00:49:48;;;;;;;2.10;2.00;;;;;;;;;;5052631;28;20295;-91
2023/10/28 00:52:16;;;;;;;2.50;1.93;;;;;;;;;;5050989;28;20234;-90
2023/10/28 00:54:47;;;;;;;2.90;2.07;;;;;;;;;;5053141;28;20708;-90
2023/10/28 00:57:16;;;;;;;3.90;2.10;;;;;;;;;;5051104;28;20284;-91
2023/10/28 00:59:45;;;;;;;4.03;2.23;;;;;;;;;;5052963;28;20332;-90
2023/10/28 01:02:15;;;;;;;2.20;1.70;;;;;;;;;;5051227;28;20315;-91
2023/10/28 01:04:44;;;;;;;2.80;1.90;;;;;;;;;;5052943;28;20214;-90
2023/10/28 01:07:18;;;;;;;1.60;1.50;;;;;;;;;;5049483;28;20609;-90
2023/10/28 01:09:48;;;;;;;2.83;1.50;;;;;;;;;;5046385;28;20735;-90
2023/10/28 01:12:28;;;;;;;1.90;1.80;;;;;;;;;;5041320;28;20295;-90
2023/10/28 01:15:02;;;;;;;1.63;1.57;;;;;;;;;;5052144;28;20198;-91
2023/10/28 01:17:31;;;;;;;1.70;1.60;;;;;;;;;;5049960;28;20224;-92
2023/10/28 01:19:59;;;;;;;1.93;1.53;;;;;;;;;;5053476;28;20562;-90
2023/10/28 01:22:29;;;;;;;1.70;1.60;;;;;;;;;;5051202;28;20233;-91
2023/10/28 01:24:59;;;;;;;2.00;1.50;;;;;;;;;;5052518;28;20217;-91
2023/10/28 01:27:27;;;;;;;1.37;1.27;;;;;;;;;;5056782;28;20241;-90
2023/10/28 01:29:57;;;;;;;1.20;1.20;;;;;;;;;;5053748;28;20209;-90
2023/10/28 01:32:25;;;;;;;1.23;1.23;;;;;;;;;;5051566;28;20229;-90
2023/10/28 01:34:54;;;;;;;1.70;1.40;;;;;;;;;;5053763;28;20664;-91
2023/10/28 01:37:23;;;;;;;1.10;1.10;;;;;;;;;;5051082;28;20253;-90
2023/10/28 01:39:56;;;;;;;1.50;1.40;;;;;;;;;;5053270;28;20210;-91
2023/10/28 01:42:24;;;;;;;1.37;1.30;;;;;;;;;;5050995;28;20646;-91
2023/10/28 01:44:55;;;;;;;1.03;1.03;;;;;;;;;;5052690;28;20229;-89
2023/10/28 01:47:24;;;;;;;1.23;1.20;;;;;;;;;;5049882;28;20720;-91
2023/10/28 01:49:53;;;;;;;1.40;1.30;;;;;;;;;;5052316;28;20205;-91
2023/10/28 01:52:23;;;;;;;2.20;1.60;;;;;;;;;;5051005;28;20237;-93
2023/10/28 01:54:51;;;;;;;1.50;1.40;;;;;;;;;;5054273;28;20263;-90
2023/10/28 01:57:21;;;;;;;1.30;1.30;;;;;;;;;;5055407;28;20234;-91
2023/10/28 01:59:49;;;;;;;2.43;1.30;;;;;;;;;;5056796;28;20660;-92
2023/10/28 02:02:18;;;;;;;2.23;1.40;;;;;;;;;;5056188;28;20238;-92
2023/10/28 02:04:46;;;;;;;1.73;1.63;;;;;;;;;;5056467;28;20209;-91
2023/10/28 02:07:14;;;;;;;1.30;1.30;;;;;;;;;;5054312;28;20257;-90
2023/10/28 02:09:48;;;;;;;1.40;1.20;;;;;;;;;;5055886;28;20206;-91
2023/10/28 02:12:19;;;;;;;1.30;1.30;;;;;;;;;;5061562;28;20240;-91
2023/10/28 02:14:50;;;;;;;1.23;1.23;;;;;;;;;;5055466;28;20244;-92
2023/10/28 02:17:22;;;;;;;1.37;1.20;;;;;;;;;;5054555;28;20230;-92
2023/10/28 02:19:50;;;;;;;1.20;1.20;;;;;;;;;;5055799;28;20221;-91
2023/10/28 02:22:19;;;;;;;1.40;1.30;;;;;;;;;;5054180;28;20238;-91
2023/10/28 02:24:47;;;;;;;0.87;0.87;;;;;;;;;;5056467;28;20209;-91
2023/10/28 02:27:17;;;;;;;1.03;1.03;;;;;;;;;;5054961;28;20258;-91
2023/10/28 02:29:46;;;;;;;1.17;1.17;;;;;;;;;;5055969;28;20252;-89
2023/10/28 02:32:15;;;;;;;1.10;1.10;;;;;;;;;;5054320;28;20230;-91
2023/10/28 02:34:45;;;;;;;1.07;1.00;;;;;;;;;;5055879;28;20237;-91
2023/10/28 02:37:19;;;;;;;1.00;1.00;;;;;;;;;;5053570;28;20236;-91
2023/10/28 02:39:53;;;;;;;1.00;1.00;;;;;;;;;;5057023;28;20193;-90
2023/10/28 02:42:26;;;;;;;1.60;1.20;;;;;;;;;;5053977;28;20766;-91
2023/10/28 02:44:57;;;;;;;2.07;1.93;;;;;;;;;;5055787;28;20194;-92
2023/10/28 02:47:26;;;;;;;1.50;1.20;;;;;;;;;;5055060;28;20226;-90
2023/10/28 02:49:56;;;;;;;1.20;1.20;;;;;;;;;;5055401;28;20206;-90
2023/10/28 02:52:24;;;;;;;1.00;1.00;;;;;;;;;;5052924;28;20225;-91
2023/10/28 02:54:53;;;;;;;1.10;1.10;;;;;;;;;;5054895;28;20228;-91
2023/10/28 02:57:22;;;;;;;1.00;1.00;;;;;;;;;;5052920;28;20257;-90
2023/10/28 02:59:50;;;;;;;1.33;1.23;;;;;;;;;;5055613;28;20205;-90
2023/10/28 03:02:18;;;;;;;1.10;1.10;;;;;;;;;;5054052;28;20244;-91
2023/10/28 03:04:48;;;;;;;1.20;1.20;;;;;;;;;;5055483;28;20206;-91
2023/10/28 03:07:16;;;;;;;1.20;1.20;;;;;;;;;;5042674;28;20234;-91
2023/10/28 03:09:44;;;;;;;1.80;1.17;;;;;;;;;;5055436;28;20301;-90
2023/10/28 03:12:17;;;;;;;2.33;1.27;;;;;;;;;;5052739;28;20738;-90
2023/10/28 03:14:45;;;;;;;1.70;1.13;;;;;;;;;;5055080;28;20648;-91
2023/10/28 03:17:15;;;;;;;1.47;1.10;;;;;;;;;;5053470;28;20295;-91
2023/10/28 03:19:48;;;;;;;1.00;1.00;;;;;;;;;;5054535;28;20197;-91
2023/10/28 03:22:21;;;;;;;1.23;1.13;;;;;;;;;;5054278;28;20341;-91
2023/10/28 03:24:51;;;;;;;1.27;1.23;;;;;;;;;;5054725;28;20210;-92
2023/10/28 03:27:19;;;;;;;1.30;1.20;;;;;;;;;;5053636;28;20275;-91
2023/10/28 03:29:50;;;;;;;1.33;1.23;;;;;;;;;;5054689;28;20405;-92
2023/10/28 03:32:19;;;;;;;1.70;1.27;;;;;;;;;;5053030;28;20233;-91
2023/10/28 03:34:47;;;;;;;4.30;1.37;;;;;;;;;;5054961;28;20206;-91
2023/10/28 03:37:20;;;;;;;1.27;1.23;;;;;;;;;;5052660;28;20341;-92
2023/10/28 03:39:53;;;;;;;2.20;1.33;;;;;;;;;;5054409;28;20267;-91
2023/10/28 03:42:21;;;;;;;1.70;1.20;;;;;;;;;;5045593;28;20237;-91
2023/10/28 03:44:50;;;;;;;5.07;1.20;;;;;;;;;;5054431;28;20229;-90
2023/10/28 03:47:18;;;;;;;2.40;1.20;;;;;;;;;;5051984;28;20332;-92
2023/10/28 03:49:47;;;;;;;1.30;1.20;;;;;;;;;;5054295;28;20201;-91
2023/10/28 03:52:15;;;;;;;2.97;1.33;;;;;;;;;;5051959;28;20242;-92
2023/10/28 03:54:44;;;;;;;1.60;1.50;;;;;;;;;;5054079;28;20202;-90
2023/10/28 03:57:12;;;;;;;1.90;1.67;;;;;;;;;;5052636;28;20238;-91
2023/10/28 03:59:41;;;;;;;1.33;1.23;;;;;;;;;;5054445;28;20210;-91
2023/10/28 04:02:09;;;;;;;1.70;1.20;;;;;;;;;;5052469;28;20291;-90
2023/10/28 04:04:41;;;;;;;1.73;1.40;;;;;;;;;;5053552;28;20312;-89
2023/10/28 04:07:11;;;;;;;3.37;1.40;;;;;;;;;;5051532;28;20402;-90
2023/10/28 04:09:44;;;;;;;1.30;1.20;;;;;;;;;;5053959;28;20205;-89
2023/10/28 04:12:15;;;;;;;1.90;1.50;;;;;;;;;;5051258;28;20716;-89
2023/10/28 04:14:43;;;;;;;2.43;1.50;;;;;;;;;;5054424;28;20232;-91
2023/10/28 04:17:11;;;;;;;1.63;1.33;;;;;;;;;;5053284;28;20226;-91
2023/10/28 04:19:39;;;;;;;5.83;1.80;;;;;;;;;;5054441;28;20206;-91
2023/10/28 04:22:07;;;;;;;1.80;1.53;;;;;;;;;;5055144;28;20287;-90
2023/10/28 04:24:40;;;;;;;1.47;1.47;;;;;;;;;;5055386;28;20226;-92
2023/10/28 04:27:15;;;;;;;1.50;1.33;;;;;;;;;;5054194;28;20237;-92
2023/10/28 04:29:46;;;;;;;1.50;1.40;;;;;;;;;;5056220;28;20208;-90
2023/10/28 04:32:20;;;;;;;1.53;1.43;;;;;;;;;;5060312;28;20245;-91
2023/10/28 04:34:53;;;;;;;1.67;1.53;;;;;;;;;;5062546;28;20233;-91
2023/10/28 04:37:24;;;;;;;2.53;1.80;;;;;;;;;;5059443;28;20229;-90
2023/10/28 04:39:54;;;;;;;2.90;2.40;;;;;;;;;;5053204;28;20245;-91
2023/10/28 04:42:23;;;;;;;3.10;2.33;;;;;;;;;;5052234;28;20239;-91
2023/10/28 04:45:05;;;;;;;5.00;3.03;;;;;;;;;;5053625;28;20287;-91
2023/10/28 04:47:35;;;;;;;5.27;3.10;;;;;;;;;;5052673;28;20331;-91
2023/10/28 04:50:03;;;;;;;3.40;3.10;;;;;;;;;;5053923;28;20672;-90
2023/10/28 04:52:31;;;;;;;2.87;2.63;;;;;;;;;;5052193;28;20242;-87
2023/10/28 04:55:02;;;;;;;4.80;3.67;;;;;;;;;;5054424;28;20229;-92
2023/10/28 04:57:31;;;;;;;4.93;4.53;;;;;;;;;;5053583;28;20225;-90
2023/10/28 05:00:00;;;;;;;5.67;3.87;;;;;;;;;;5054481;28;20206;-93
2023/10/28 05:02:28;;;;;;;6.70;3.87;;;;;;;;;;5052343;28;20237;-91
2023/10/28 05:04:56;;;;;;;4.30;2.30;;;;;;;;;;5054177;28;20222;-91
2023/10/28 05:07:24;;;;;;;9.57;2.37;;;;;;;;;;5053559;28;20645;-89
2023/10/28 05:09:52;;;;;;;2.97;1.77;;;;;;;;;;5055269;28;20206;-91
2023/10/28 05:12:20;;;;;;;3.47;1.80;;;;;;;;;;5051756;28;20292;-89
2023/10/28 05:14:54;;;;;;;1.77;1.67;;;;;;;;;;5053621;28;20202;-91
2023/10/28 05:17:23;;;;;;;1.37;1.27;;;;;;;;;;5052103;28;20233;-90
2023/10/28 05:19:51;;;;;;;1.70;1.60;;;;;;;;;;5053833;28;20222;-90
2023/10/28 05:22:20;;;;;;;1.60;1.50;;;;;;;;;;5051222;28;20241;-90
2023/10/28 05:24:48;;;;;;;2.40;1.73;;;;;;;;;;5053123;28;20280;-90
2023/10/28 05:27:16;;;;;;;4.40;1.90;;;;;;;;;;5052183;28;20225;-91
2023/10/28 05:29:55;;;;;;;2.63;1.70;;;;;;;;;;5055444;28;20206;-91
2023/10/28 05:32:29;;;;;;;3.07;1.97;;;;;;;;;;5063178;28;20275;-91
2023/10/28 05:34:58;;;;;;;3.77;1.90;;;;;;;;;;5058090;28;20185;-90
2023/10/28 05:37:28;;;;;;;2.63;1.50;;;;;;;;;;5054853;28;20241;-89
2023/10/28 05:39:58;;;;;;;1.47;1.37;;;;;;;;;;5056288;28;20210;-88
2023/10/28 05:42:26;;;;;;;1.67;1.57;;;;;;;;;;5053492;28;20241;-88
2023/10/28 05:44:55;;;;;;;3.50;2.67;;;;;;;;;;5056496;28;20230;-90
2023/10/28 05:47:27;;;;;;;5.37;2.13;;;;;;;;;;5054880;28;20237;-89
2023/10/28 05:49:55;;;;;;;7.20;2.13;;;;;;;;;;5072660;28;20201;-89
2023/10/28 05:52:24;;;;;;;7.00;2.40;;;;;;;;;;5066517;28;20600;-90
2023/10/28 05:54:54;;;;;;;6.47;3.50;;;;;;;;;;5076032;28;20201;-88
2023/10/28 05:57:24;;;;;;;3.33;2.37;;;;;;;;;;5074233;28;20237;-87
2023/10/28 05:59:52;;;;;;;6.27;2.20;;;;;;;;;;5076009;28;20222;-88
2023/10/28 06:02:19;;;;;;;2.37;2.17;;;;;;;;;;5074436;28;20265;-87
2023/10/28 06:04:53;;;;;;;5.00;2.60;;;;;;;;;;5075948;28;20266;-89
2023/10/28 06:07:21;;;;;;;3.40;2.00;;;;;;;;;;5074787;28;20239;-88
2023/10/28 06:09:52;;;;;;;6.47;1.70;;;;;;;;;;5075223;28;20190;-87
2023/10/28 06:12:20;;;;;;;2.40;1.60;;;;;;;;;;5074129;28;20291;-88
2023/10/28 06:14:48;;;;;;;4.90;1.90;;;;;;;;;;5076319;28;20273;-88
2023/10/28 06:17:20;;;;;;;2.87;1.80;;;;;;;;;;5064462;28;20331;-89
2023/10/28 06:19:51;;;;;;;6.17;1.80;;;;;;;;;;5058048;28;20224;-89
2023/10/28 06:22:19;;;;;;;3.83;2.23;;;;;;;;;;5054619;28;20241;-88
2023/10/28 06:24:50;;;;;;;9.47;3.60;;;;;;;;;;5054871;28;20226;-86
2023/10/28 06:27:18;;;;;;;4.73;1.90;;;;;;;;;;5053163;28;20257;-87
2023/10/28 06:29:49;;;;;;;4.47;2.00;;;;;;;;;;5054177;28;20248;-87
2023/10/28 06:32:16;;;;;;;2.97;1.83;;;;;;;;;;5053426;28;20242;-84
2023/10/28 06:34:49;;;;;;;3.07;1.60;;;;;;;;;;5054372;28;20622;-87
2023/10/28 06:37:15;;;;;;;6.93;2.10;;;;;;;;;;5052547;28;20329;-86
2023/10/28 06:39:47;;;;;;;5.07;1.80;;;;;;;;;;5054276;28;20194;-88
2023/10/28 06:42:19;;;;;;;4.57;1.90;;;;;;;;;;5053284;28;20241;-88
2023/10/28 06:44:53;;;;;;;2.00;1.80;;;;;;;;;;5054736;28;20230;-86
2023/10/28 06:47:21;;;;;;;2.07;1.67;;;;;;;;;;5052173;28;20237;-84
2023/10/28 06:49:51;;;;;;;5.73;1.83;;;;;;;;;;5054588;28;20220;-87
2023/10/28 06:52:22;;;;;;;3.20;1.90;;;;;;;;;;5053397;28;20324;-85
2023/10/28 06:54:51;;;;;;;6.83;2.10;;;;;;;;;;5055611;28;20291;-87
2023/10/28 06:57:24;;;;;;;1.93;1.70;;;;;;;;;;5060486;28;20307;-87
2023/10/28 06:59:52;;;;;;;2.03;1.60;;;;;;;;;;5054934;28;20567;-88
2023/10/28 07:02:20;;;;;;;3.97;1.70;;;;;;;;;;5053120;28;20631;-87
2023/10/28 07:04:54;;;;;;;2.07;1.73;;;;;;;;;;5054261;28;20234;-88
2023/10/28 07:07:23;;;;;;;1.80;1.70;;;;;;;;;;5043678;28;20321;-88
2023/10/28 07:09:52;;;;;;;7.37;1.83;;;;;;;;;;5054004;28;20217;-91
2023/10/28 07:12:22;;;;;;;2.20;1.77;;;;;;;;;;5053275;28;20249;-88
2023/10/28 07:14:50;;;;;;;6.47;2.37;;;;;;;;;;5054815;28;20708;-89
2023/10/28 07:17:17;;;;;;;3.63;2.07;;;;;;;;;;5052951;28;20597;-88
2023/10/28 07:19:50;;;;;;;1.53;1.43;;;;;;;;;;5054782;28;20264;-89
2023/10/28 07:22:21;;;;;;;1.60;1.50;;;;;;;;;;5052529;28;20316;-87
2023/10/28 07:24:53;;;;;;;2.30;1.33;;;;;;;;;;5054570;28;20704;-88
2023/10/28 07:27:21;;;;;;;2.27;1.80;;;;;;;;;;5052191;28;20234;-88
2023/10/28 07:29:53;;;;;;;6.67;2.23;;;;;;;;;;5054315;28;20575;-86
2023/10/28 07:32:27;;;;;;;3.27;1.67;;;;;;;;;;5052155;28;20233;-86
2023/10/28 07:34:55;;;;;;;2.47;1.57;;;;;;;;;;5055581;28;20309;-87
2023/10/28 07:37:25;;;;;;;4.93;1.60;;;;;;;;;;5061124;28;20233;-87
2023/10/28 07:39:56;;;;;;;2.10;1.60;;;;;;;;;;5054288;28;20306;-86
2023/10/28 07:42:23;;;;;;;3.47;1.80;;;;;;;;;;5056828;28;20233;-76
2023/10/28 07:44:51;;;;;;;7.80;1.93;;;;;;;;;;5051907;28;20229;-76
2023/10/28 07:47:18;;;;;;;2.13;1.67;;;;;;;;;;5051601;28;20272;-75
2023/10/28 07:49:45;;;;;;;3.80;1.50;;;;;;;;;;5052338;28;20209;-76
2023/10/28 07:52:12;;;;;;;4.60;1.80;;;;;;;;;;5051463;28;20242;-75
2023/10/28 07:54:41;;;;;;;1.87;1.40;;;;;;;;;;5052212;28;20209;-76
2023/10/28 07:57:08;;;;;;;3.30;1.70;;;;;;;;;;5052141;28;20336;-76
2023/10/28 07:59:35;;;;;;;1.60;1.50;;;;;;;;;;5052154;28;20668;-76
2023/10/28 08:02:02;;;;;;;2.90;1.43;;;;;;;;;;5051774;28;20237;-75
2023/10/28 08:04:29;;;;;;;6.03;1.57;;;;;;;;;;5052178;28;20240;-76
2023/10/28 08:06:56;;;;;;;1.27;1.17;;;;;;;;;;5051524;28;20237;-76
2023/10/28 08:09:23;;;;;;;6.10;1.70;;;;;;;;;;5052016;28;20202;-76
2023/10/28 08:11:52;;;;;;;3.47;1.73;;;;;;;;;;5051667;28;20734;-76
2023/10/28 08:14:19;;;;;;;3.50;1.57;;;;;;;;;;5052001;28;20255;-75
2023/10/28 08:16:46;;;;;;;3.23;1.77;;;;;;;;;;5051343;28;20733;-75
2023/10/28 08:19:13;;;;;;;4.57;2.10;;;;;;;;;;5052037;28;20212;-76
2023/10/28 08:21:40;;;;;;;2.73;1.90;;;;;;;;;;5051174;28;20795;-76
2023/10/28 08:24:11;;;;;;;4.37;1.77;;;;;;;;;;5051888;28;20581;-76
2023/10/28 08:26:38;;;;;;;3.13;1.77;;;;;;;;;;5051340;28;20727;-75
2023/10/28 08:29:07;;;;;;;1.87;1.63;;;;;;;;;;5051942;28;20214;-75
2023/10/28 08:31:34;;;;;;;2.93;1.77;;;;;;;;;;5051148;28;20237;-75
2023/10/28 08:34:04;;;;;;;2.43;1.40;;;;;;;;;;5051667;28;20210;-75
2023/10/28 08:36:31;;;;;;;1.87;1.73;;;;;;;;;;5051106;28;20240;-75
2023/10/28 08:38:58;;;;;;;1.40;1.30;;;;;;;;;;5051776;28;20511;-75
2023/10/28 08:41:25;;;;;;;2.63;1.73;;;;;;;;;;5050888;28;20599;-76
2023/10/28 08:43:53;;;;;;;1.67;1.53;;;;;;;;;;5051464;28;20209;-76
2023/10/28 08:46:21;;;;;;;4.97;2.20;;;;;;;;;;5050973;28;20360;-74
2023/10/28 08:48:48;;;;;;;3.70;1.63;;;;;;;;;;5051175;28;20209;-76
2023/10/28 08:51:16;;;;;;;3.07;1.70;;;;;;;;;;5050761;28;20253;-76
2023/10/28 08:53:44;;;;;;;2.60;1.43;;;;;;;;;;5051173;28;20212;-76
2023/10/28 08:56:12;;;;;;;3.93;1.60;;;;;;;;;;5050898;28;20229;-74
2023/10/28 08:58:39;;;;;;;3.27;1.60;;;;;;;;;;5051217;28;20221;-76
2023/10/28 09:01:08;;;;;;;1.73;1.60;;;;;;;;;;5051071;28;20295;-75
2023/10/28 09:03:40;;;;;;;2.77;1.50;;;;;;;;;;5050743;28;20271;-76
2023/10/28 09:06:07;;;;;;;1.97;1.50;;;;;;;;;;5050659;28;20283;-76
2023/10/28 09:08:34;;;;;;;3.77;1.40;;;;;;;;;;5051204;28;20210;-76
2023/10/28 09:11:02;;;;;;;5.50;1.67;;;;;;;;;;5050844;28;20221;-76
2023/10/28 09:13:29;;;;;;;1.90;1.60;;;;;;;;;;5050943;28;20301;-76
2023/10/28 09:15:56;;;;;;;2.27;1.47;;;;;;;;;;5050743;28;20238;-75
2023/10/28 09:18:23;;;;;;;3.40;1.97;;;;;;;;;;5051044;28;20212;-76
2023/10/28 09:20:51;;;;;;;1.73;1.37;;;;;;;;;;5050259;28;20257;-75
2023/10/28 09:23:18;;;;;;;2.13;1.70;;;;;;;;;;5050940;28;20210;-76
2023/10/28 09:25:45;;;;;;;4.57;1.60;;;;;;;;;;5050322;28;20234;-76
2023/10/28 09:28:16;;;;;;;3.47;1.50;;;;;;;;;;5050961;28;20202;-75
2023/10/28 09:30:46;;;;;;;4.90;1.73;;;;;;;;;;5050275;28;20715;-76
2023/10/28 09:33:14;;;;;;;3.03;1.60;;;;;;;;;;5051074;28;20233;-77
2023/10/28 09:35:43;;;;;;;3.43;1.90;;;;;;;;;;5050205;28;20234;-77
2023/10/28 09:38:12;;;;;;;3.23;1.60;;;;;;;;;;5051080;28;20206;-76
2023/10/28 09:40:39;;;;;;;3.07;1.70;;;;;;;;;;5050179;28;20315;-76
2023/10/28 09:43:07;;;;;;;2.33;1.50;;;;;;;;;;5050780;28;20226;-77
2023/10/28 09:45:35;;;;;;;2.30;1.37;;;;;;;;;;5050355;28;20240;-76
2023/10/28 09:48:05;;;;;;;5.10;2.00;;;;;;;;;;5050805;28;20209;-77
2023/10/28 09:50:36;;;;;;;3.77;1.80;;;;;;;;;;5050730;28;20579;-77
2023/10/28 09:53:05;;;;;;;2.10;1.70;;;;;;;;;;5051202;28;20234;-76
2023/10/28 09:55:35;;;;;;;1.97;1.70;;;;;;;;;;5050728;28;20230;-76
2023/10/28 09:58:07;;;;;;;7.20;2.50;;;;;;;;;;5051020;28;20206;-75
2023/10/28 10:00:37;;;;;;;4.17;1.70;;;;;;;;;;5051006;28;20667;-76
2023/10/28 10:03:09;;;;;;;2.57;1.80;;;;;;;;;;5051855;28;20304;-76
2023/10/28 10:05:38;;;;;;;2.87;2.10;;;;;;;;;;5051534;28;20312;-75
2023/10/28 10:08:05;;;;;;;3.70;1.43;;;;;;;;;;5051673;28;20214;-76
2023/10/28 10:10:45;;;;;;;2.67;1.83;;;;;;;;;;5050265;28;20238;-76
2023/10/28 10:13:12;;;;;;;6.77;2.03;;;;;;;;;;5050758;28;20206;-76
2023/10/28 10:15:42;;;;;;;2.27;1.90;;;;;;;;;;5051311;28;20232;-76
2023/10/28 10:18:11;;;;;;;5.27;1.70;;;;;;;;;;5054632;28;20214;-76
2023/10/28 10:20:38;;;;;;;5.10;2.00;;;;;;;;;;5053809;28;20700;-75
2023/10/28 10:23:05;;;;;;;3.57;1.53;;;;;;;;;;5054101;28;20257;-75
2023/10/28 10:25:32;;;;;;;1.63;1.30;;;;;;;;;;5053787;28;20234;-75
2023/10/28 10:28:12;;;;;;;3.13;1.70;;;;;;;;;;5054113;28;20264;-76
2023/10/28 10:30:39;;;;;;;3.80;1.63;;;;;;;;;;5053815;28;20230;-76
2023/10/28 10:33:06;;;;;;;4.03;1.30;;;;;;;;;;5053955;28;20222;-76
2023/10/28 10:35:34;;;;;;;2.53;2.13;;;;;;;;;;5053687;28;20711;-76
2023/10/28 10:38:02;;;;;;;3.53;1.47;;;;;;;;;;5053803;28;20216;-75
2023/10/28 10:40:31;;;;;;;4.43;1.80;;;;;;;;;;5053689;28;20229;-75
2023/10/28 10:42:58;;;;;;;2.40;1.60;;;;;;;;;;5053678;28;20298;-75
2023/10/28 10:45:27;;;;;;;3.97;1.73;;;;;;;;;;5053605;28;20593;-76
2023/10/28 10:47:54;;;;;;;6.60;2.77;;;;;;;;;;5053599;28;20210;-77
2023/10/28 10:50:21;;;;;;;3.60;2.73;;;;;;;;;;5053279;28;20210;-76
2023/10/28 10:52:50;;;;;;;2.83;2.50;;;;;;;;;;5053330;28;20241;-75
2023/10/28 10:55:23;;;;;;;5.00;1.80;;;;;;;;;;5053460;28;20237;-76
2023/10/28 10:57:51;;;;;;;4.63;2.07;;;;;;;;;;5053493;28;20684;-76
2023/10/28 11:00:18;;;;;;;3.10;1.87;;;;;;;;;;5053047;28;20210;-76
2023/10/28 11:02:47;;;;;;;2.87;2.17;;;;;;;;;;5053168;28;20221;-76
2023/10/28 11:05:14;;;;;;;4.60;2.53;;;;;;;;;;5052899;28;20619;-76
2023/10/28 11:07:43;;;;;;;2.63;1.73;;;;;;;;;;5053418;28;20210;-76
2023/10/28 11:10:10;;;;;;;3.27;2.07;;;;;;;;;;5052803;28;20581;-76
2023/10/28 11:12:38;;;;;;;4.30;2.30;;;;;;;;;;5053093;28;20226;-76
2023/10/28 11:15:05;;;;;;;5.37;2.07;;;;;;;;;;5052689;28;20209;-77
2023/10/28 11:17:32;;;;;;;3.30;1.63;;;;;;;;;;5053708;28;20206;-76
2023/10/28 11:20:03;;;;;;;2.10;1.70;;;;;;;;;;5053004;28;20206;-76
2023/10/28 11:22:30;;;;;;;6.60;2.07;;;;;;;;;;5052850;28;20230;-76
2023/10/28 11:24:58;;;;;;;4.80;2.20;;;;;;;;;;5052897;28;20210;-77
2023/10/28 11:27:26;;;;;;;8.00;2.50;;;;;;;;;;5052125;28;20233;-76
2023/10/28 11:29:53;;;;;;;5.47;2.27;;;;;;;;;;5052872;28;20214;-77
2023/10/28 11:32:21;;;;;;;2.70;2.13;;;;;;;;;;5052301;28;20238;-77
2023/10/28 11:34:48;;;;;;;3.97;1.77;;;;;;;;;;5053037;28;20721;-77
2023/10/28 11:37:17;;;;;;;6.43;2.37;;;;;;;;;;5052452;28;20260;-77
2023/10/28 11:39:45;;;;;;;4.23;1.90;;;;;;;;;;5052594;28;20687;-77
2023/10/28 11:42:13;;;;;;;2.40;1.37;;;;;;;;;;5052292;28;20325;-77
2023/10/28 11:44:40;;;;;;;7.50;2.20;;;;;;;;;;5052824;28;20232;-77
2023/10/28 11:47:07;;;;;;;4.10;2.00;;;;;;;;;;5052112;28;20237;-77
2023/10/28 11:49:34;;;;;;;5.27;1.70;;;;;;;;;;5052702;28;20225;-79
2023/10/28 11:52:02;;;;;;;5.83;1.83;;;;;;;;;;5051792;28;20242;-77
2023/10/28 11:54:30;;;;;;;6.53;2.50;;;;;;;;;;5052552;28;20210;-77
2023/10/28 11:56:57;;;;;;;4.90;2.20;;;;;;;;;;5051864;28;20230;-77
2023/10/28 11:59:24;;;;;;;3.37;2.00;;;;;;;;;;5052483;28;20577;-77
2023/10/28 12:01:53;;;;;;;5.77;1.87;;;;;;;;;;5051703;28;20721;-77
2023/10/28 12:04:20;;;;;;;5.73;1.90;;;;;;;;;;5052441;28;20213;-77
2023/10/28 12:06:48;;;;;;;3.33;2.03;;;;;;;;;;5051588;28;20234;-75
2023/10/28 12:09:15;;;;;;;6.00;1.80;;;;;;;;;;5052271;28;20210;-75
2023/10/28 12:11:43;;;;;;;2.70;1.53;;;;;;;;;;5051733;28;20241;-78
2023/10/28 12:14:11;;;;;;;4.97;2.10;;;;;;;;;;5052078;28;20580;-77
2023/10/28 12:16:38;;;;;;;6.37;1.23;;;;;;;;;;5051672;28;20341;-77
2023/10/28 12:19:06;;;;;;;5.77;1.70;;;;;;;;;;5051906;28;20213;-77
2023/10/28 12:21:33;;;;;;;5.20;1.53;;;;;;;;;;5051682;28;20245;-77
2023/10/28 12:24:00;;;;;;;5.73;2.07;;;;;;;;;;5051624;28;20214;-77
2023/10/28 12:26:28;;;;;;;3.07;1.80;;;;;;;;;;5051566;28;20559;-77
2023/10/28 12:28:56;;;;;;;4.17;1.83;;;;;;;;;;5051511;28;20210;-75
2023/10/28 12:31:24;;;;;;;3.70;1.57;;;;;;;;;;5051397;28;20319;-75
2023/10/28 12:33:51;;;;;;;3.60;1.83;;;;;;;;;;5051534;28;20676;-75
2023/10/28 12:36:20;;;;;;;3.63;1.83;;;;;;;;;;5051471;28;20712;-75
2023/10/28 12:38:47;;;;;;;7.13;2.27;;;;;;;;;;5050782;28;20630;-75
2023/10/28 12:41:14;;;;;;;3.30;2.10;;;;;;;;;;5051100;28;20247;-75
2023/10/28 12:43:41;;;;;;;3.23;2.10;;;;;;;;;;5051210;28;20214;-75
2023/10/28 12:46:12;;;;;;;4.07;2.10;;;;;;;;;;5051237;28;20234;-75
2023/10/28 12:48:39;;;;;;;5.70;2.20;;;;;;;;;;5051662;28;20206;-75
2023/10/28 12:51:06;;;;;;;5.40;2.27;;;;;;;;;;5050817;28;20838;-75
2023/10/28 12:53:33;;;;;;;5.07;2.00;;;;;;;;;;5051387;28;20687;-75
2023/10/28 12:56:02;;;;;;;2.93;1.40;;;;;;;;;;5050736;28;20879;-77
2023/10/28 12:58:29;;;;;;;4.33;2.27;;;;;;;;;;5051449;28;20275;-77
2023/10/28 13:00:56;;;;;;;6.67;2.43;;;;;;;;;;5050605;28;20241;-77
2023/10/28 13:03:25;;;;;;;2.87;1.53;;;;;;;;;;5051287;28;20198;-77
2023/10/28 13:05:52;;;;;;;3.13;1.57;;;;;;;;;;5050565;28;20230;-77
2023/10/28 13:08:19;;;;;;;3.27;1.90;;;;;;;;;;5051386;28;20210;-77
2023/10/28 13:10:46;;;;;;;4.60;1.90;;;;;;;;;;5050453;28;20230;-77
2023/10/28 13:13:14;;;;;;;3.50;2.03;;;;;;;;;;5051400;28;20207;-78
2023/10/28 13:15:41;;;;;;;1.47;1.30;;;;;;;;;;5050609;28;20233;-78
2023/10/28 13:18:10;;;;;;;7.87;2.13;;;;;;;;;;5051192;28;20202;-77
2023/10/28 13:20:38;;;;;;;3.10;1.70;;;;;;;;;;5050469;28;20264;-77
2023/10/28 13:23:05;;;;;;;4.90;2.10;;;;;;;;;;5050671;28;20290;-77
2023/10/28 13:25:32;;;;;;;1.97;1.47;;;;;;;;;;5050475;28;20229;-77
2023/10/28 13:27:59;;;;;;;2.10;1.80;;;;;;;;;;5050862;28;20210;-77
2023/10/28 13:30:26;;;;;;;3.10;1.60;;;;;;;;;;5050652;28;20229;-77
2023/10/28 13:32:53;;;;;;;2.67;1.63;;;;;;;;;;5050501;28;20230;-77
2023/10/28 13:35:21;;;;;;;4.27;2.10;;;;;;;;;;5050593;28;20205;-77
2023/10/28 13:37:49;;;;;;;7.07;1.90;;;;;;;;;;5050697;28;20229;-77
2023/10/28 13:40:17;;;;;;;2.73;1.50;;;;;;;;;;5050512;28;20206;-77
2023/10/28 13:42:44;;;;;;;6.50;2.53;;;;;;;;;;5050453;28;20743;-77
2023/10/28 13:45:11;;;;;;;2.27;1.87;;;;;;;;;;5050670;28;20524;-77
2023/10/28 13:47:38;;;;;;;5.07;1.90;;;;;;;;;;5050725;28;20236;-76
2023/10/28 13:50:06;;;;;;;3.70;1.80;;;;;;;;;;5050703;28;20202;-77
2023/10/28 13:52:33;;;;;;;1.73;1.63;;;;;;;;;;5054321;28;20767;-77
2023/10/28 13:55:03;;;;;;;3.93;2.00;;;;;;;;;;5054846;28;20256;-77
2023/10/28 13:57:30;;;;;;;4.03;2.13;;;;;;;;;;5054413;28;20222;-77
2023/10/28 13:59:57;;;;;;;6.13;1.97;;;;;;;;;;5054597;28;20237;-76
2023/10/28 14:02:24;;;;;;;4.83;2.07;;;;;;;;;;5053844;28;20237;-77
2023/10/28 14:04:51;;;;;;;2.17;1.70;;;;;;;;;;5054584;28;20224;-77
2023/10/28 14:07:18;;;;;;;2.37;1.90;;;;;;;;;;5053970;28;20739;-77
2023/10/28 14:09:46;;;;;;;7.70;2.27;;;;;;;;;;5054208;28;20676;-77
2023/10/28 14:12:15;;;;;;;5.03;2.27;;;;;;;;;;5053644;28;20241;-77
2023/10/28 14:14:42;;;;;;;1.70;1.60;;;;;;;;;;5054231;28;20684;-77
2023/10/28 14:17:09;;;;;;;1.87;1.50;;;;;;;;;;5053965;28;20274;-77
2023/10/28 14:19:36;;;;;;;1.77;1.67;;;;;;;;;;5054049;28;20202;-76
2023/10/28 14:22:04;;;;;;;2.47;1.83;;;;;;;;;;5053707;28;20237;-76
2023/10/28 14:24:31;;;;;;;2.37;2.17;;;;;;;;;;5053732;28;20306;-76
2023/10/28 14:26:58;;;;;;;4.43;2.13;;;;;;;;;;5053648;28;20238;-76
2023/10/28 14:29:26;;;;;;;6.97;2.13;;;;;;;;;;5054077;28;20202;-76
2023/10/28 14:31:54;;;;;;;2.93;2.10;;;;;;;;;;5053314;28;20242;-76
2023/10/28 14:34:21;;;;;;;3.50;1.77;;;;;;;;;;5053698;28;20214;-76
2023/10/28 14:36:48;;;;;;;2.37;2.10;;;;;;;;;;5053633;28;20340;-76
2023/10/28 14:39:16;;;;;;;4.30;2.17;;;;;;;;;;5053766;28;20677;-76
2023/10/28 14:41:43;;;;;;;2.80;1.90;;;;;;;;;;5053209;28;20238;-76
2023/10/28 14:44:10;;;;;;;4.27;1.87;;;;;;;;;;5053951;28;20206;-76
2023/10/28 14:46:39;;;;;;;3.13;1.50;;;;;;;;;;5053209;28;20240;-76
2023/10/28 14:49:06;;;;;;;2.53;2.00;;;;;;;;;;5053698;28;20565;-76
2023/10/28 14:51:33;;;;;;;1.67;1.57;;;;;;;;;;5053042;28;20873;-76
2023/10/28 14:54:00;;;;;;;5.00;1.70;;;;;;;;;;5053506;28;20214;-76